KWVI/WVI METAR and TAF weather

Enter ICAO airport designator
Station Type Date Time Source
KWVI METAR 2022/01/29 11:53 UTC NOAA

KWVI 291153Z AUTO 00000KT 10SM CLR 03/M01 A3021 RMK AO2 SLP229 T00331006 10100 20033 58009


Station Type Date Time Source
KWVI Decoded METAR 2022/01/29 11:53 UTC NOAA

WATSONVILLE MUNICIPAL AIRPORT , CA, United States (KWVI) 36-56N 121-47W 43M
Jan 29, 2022 - 06:53 AM EST / 2022.01.29 1153 UTC
Wind: Calm:0
Visibility: 10 mile(s):0
Sky conditions: clear
Temperature: 37.9 F (3.3 C)
Dew Point: 30.9 F (-0.6 C)
Relative Humidity: 75%
Pressure (altimeter): 30.21 in. Hg (1023 hPa)
Pressure tendency: 0.03 inches (0.9 hPa) lower than three hours ago
ob: KWVI 291153Z AUTO 00000KT 10SM CLR 03/M01 A3021 RMK AO2 SLP229 T00331006 10100 20033 58009
cycle: 12

Station Type Date Time Source
KWVI TAF UTC NOAA

Error!

Example: see airport list